createdAt,value
2023-05-19T00:00:37.137Z,100.00
2023-05-19T00:03:05.871Z,100.00
2023-05-19T00:05:35.625Z,100.00
2023-05-19T00:08:05.546Z,100.00
2023-05-19T00:10:34.331Z,100.00
2023-05-19T00:13:02.934Z,100.00
2023-05-19T00:15:31.613Z,100.00
2023-05-19T00:18:01.013Z,100.00
2023-05-19T00:20:29.235Z,100.00
2023-05-19T00:22:57.332Z,100.00
2023-05-19T00:25:25.856Z,100.00
2023-05-19T00:27:53.916Z,100.00
2023-05-19T00:30:22.952Z,100.00
2023-05-19T00:32:51.006Z,100.00
2023-05-19T00:35:21.667Z,100.00
2023-05-19T00:37:49.827Z,100.00
2023-05-19T00:40:18.150Z,100.00
2023-05-19T00:42:46.251Z,100.00
2023-05-19T00:45:14.298Z,100.00
2023-05-19T00:47:42.432Z,100.00
2023-05-19T00:50:11.426Z,100.00
2023-05-19T00:52:40.824Z,100.00
2023-05-19T00:55:09.826Z,100.00
2023-05-19T00:57:38.716Z,100.00
2023-05-19T01:00:08.319Z,100.00
2023-05-19T01:02:38.178Z,100.00
2023-05-19T01:05:07.417Z,100.00
2023-05-19T01:07:36.831Z,100.00
2023-05-19T01:10:07.196Z,100.00
2023-05-19T01:12:36.044Z,100.00
2023-05-19T01:15:05.461Z,100.00
2023-05-19T01:17:47.025Z,100.00
2023-05-19T01:20:21.928Z,100.00
2023-05-19T01:23:14.999Z,100.00
2023-05-19T01:26:14.156Z,100.00
2023-05-19T01:29:08.625Z,100.00
2023-05-19T01:31:40.157Z,100.00
2023-05-19T01:34:09.587Z,100.00
2023-05-19T01:36:39.619Z,100.00
2023-05-19T01:39:08.038Z,100.00
2023-05-19T01:41:36.535Z,100.00
2023-05-19T01:44:04.810Z,100.00
2023-05-19T01:46:33.100Z,100.00
2023-05-19T01:49:03.226Z,100.00
2023-05-19T01:51:31.496Z,100.00
2023-05-19T01:53:59.683Z,100.00
2023-05-19T01:56:39.357Z,100.00
2023-05-19T01:59:17.989Z,100.00
2023-05-19T02:01:53.375Z,100.00
2023-05-19T02:04:32.428Z,100.00
2023-05-19T02:07:04.952Z,100.00
2023-05-19T02:09:40.761Z,100.00
2023-05-19T02:12:15.435Z,100.00
2023-05-19T02:14:50.717Z,100.00
2023-05-19T02:17:20.923Z,100.00
2023-05-19T02:19:50.397Z,100.00
2023-05-19T02:22:18.409Z,100.00
2023-05-19T02:24:47.735Z,100.00
2023-05-19T02:27:15.740Z,100.00
2023-05-19T02:29:43.776Z,100.00
2023-05-19T02:32:12.053Z,100.00
2023-05-19T02:34:40.136Z,100.00
2023-05-19T02:37:09.568Z,100.00
2023-05-19T02:39:37.574Z,100.00
2023-05-19T02:42:06.243Z,100.00
2023-05-19T02:44:34.263Z,100.00
2023-05-19T02:47:02.337Z,100.00
2023-05-19T02:49:31.001Z,100.00
2023-05-19T02:51:59.013Z,100.00
2023-05-19T02:54:28.411Z,100.00
2023-05-19T02:56:56.411Z,100.00
2023-05-19T02:59:25.601Z,100.00
2023-05-19T03:01:57.374Z,100.00
2023-05-19T03:04:25.464Z,100.00
2023-05-19T03:06:54.124Z,100.00
2023-05-19T03:09:22.285Z,100.00
2023-05-19T03:11:51.681Z,100.00
2023-05-19T03:14:23.879Z,100.00
2023-05-19T03:16:52.450Z,100.00
2023-05-19T03:19:20.867Z,100.00
2023-05-19T03:21:49.668Z,100.00
2023-05-19T03:24:18.075Z,100.00
2023-05-19T03:26:46.113Z,100.00
2023-05-19T03:29:15.460Z,100.00
2023-05-19T03:31:43.609Z,100.00
2023-05-19T03:34:11.593Z,100.00
2023-05-19T03:36:39.933Z,100.00
2023-05-19T03:39:08.207Z,100.00
2023-05-19T03:41:36.238Z,100.00
2023-05-19T03:44:04.326Z,100.00
2023-05-19T03:46:33.704Z,100.00
2023-05-19T03:49:01.714Z,100.00
2023-05-19T03:51:30.098Z,100.00
2023-05-19T03:53:58.244Z,100.00
2023-05-19T03:56:27.653Z,100.00
2023-05-19T03:58:55.949Z,100.00
2023-05-19T04:01:23.977Z,100.00
2023-05-19T04:03:53.397Z,100.00
2023-05-19T04:06:22.076Z,100.00
2023-05-19T04:08:50.253Z,100.00
2023-05-19T04:11:20.043Z,100.00
2023-05-19T04:13:48.329Z,100.00
2023-05-19T04:16:16.446Z,100.00
2023-05-19T04:18:46.409Z,100.00
2023-05-19T04:21:16.016Z,100.00
2023-05-19T04:23:44.062Z,100.00
2023-05-19T04:26:12.194Z,100.00
2023-05-19T04:28:42.323Z,100.00
2023-05-19T04:31:10.996Z,100.00
2023-05-19T04:33:39.284Z,100.00
2023-05-19T04:36:11.487Z,100.00
2023-05-19T04:38:41.200Z,100.00
2023-05-19T04:41:10.839Z,100.00
2023-05-19T04:43:41.550Z,100.00
2023-05-19T04:46:12.307Z,100.00
2023-05-19T04:48:41.646Z,100.00
2023-05-19T04:51:09.732Z,100.00
2023-05-19T04:53:40.156Z,100.00
2023-05-19T04:56:10.586Z,100.00
2023-05-19T04:58:40.582Z,100.00
2023-05-19T05:01:10.628Z,100.00
2023-05-19T05:03:38.814Z,100.00
2023-05-19T05:06:07.055Z,100.00
2023-05-19T05:08:35.198Z,100.00
2023-05-19T05:11:04.018Z,100.00
2023-05-19T05:13:34.164Z,100.00
2023-05-19T05:16:04.714Z,100.00
2023-05-19T05:18:33.528Z,100.00
2023-05-19T05:21:02.192Z,100.00
2023-05-19T05:23:30.795Z,100.00
2023-05-19T05:25:59.509Z,100.00
2023-05-19T05:28:27.520Z,100.00
2023-05-19T05:30:57.880Z,100.00
2023-05-19T05:33:27.331Z,100.00
2023-05-19T05:35:55.552Z,100.00
2023-05-19T05:38:23.604Z,100.00
2023-05-19T05:40:51.622Z,100.00
2023-05-19T05:43:19.633Z,100.00
2023-05-19T05:45:47.679Z,100.00
2023-05-19T05:48:17.833Z,100.00
2023-05-19T05:50:46.724Z,100.00
2023-05-19T05:53:19.768Z,100.00
2023-05-19T05:55:48.460Z,100.00
2023-05-19T05:58:17.064Z,100.00
2023-05-19T06:00:45.452Z,100.00
2023-05-19T06:03:14.552Z,100.00
2023-05-19T06:05:44.222Z,100.00
2023-05-19T06:08:12.302Z,100.00
2023-05-19T06:10:41.724Z,100.00
2023-05-19T06:13:09.772Z,100.00
2023-05-19T06:15:37.969Z,100.00
2023-05-19T06:18:06.127Z,100.00
2023-05-19T06:20:34.297Z,100.00
2023-05-19T06:23:04.057Z,100.00
2023-05-19T06:25:32.339Z,100.00
2023-05-19T06:28:00.622Z,100.00
2023-05-19T06:30:28.733Z,100.00
2023-05-19T06:32:57.483Z,100.00
2023-05-19T06:35:25.683Z,100.00
2023-05-19T06:37:53.699Z,100.00
2023-05-19T06:40:23.286Z,100.00
2023-05-19T06:42:51.339Z,100.00
2023-05-19T06:45:21.903Z,100.00
2023-05-19T06:47:49.989Z,100.00
2023-05-19T06:50:18.145Z,100.00
2023-05-19T06:52:47.062Z,100.00
2023-05-19T06:55:15.119Z,100.00
2023-05-19T06:57:44.800Z,100.00
2023-05-19T07:00:16.756Z,100.00
2023-05-19T07:02:45.984Z,100.00
2023-05-19T07:05:14.112Z,100.00
2023-05-19T07:07:42.251Z,100.00
2023-05-19T07:10:11.373Z,100.00
2023-05-19T07:12:39.435Z,100.00
2023-05-19T07:15:09.616Z,100.00
2023-05-19T07:17:37.725Z,100.00
2023-05-19T07:20:10.018Z,100.00
2023-05-19T07:22:39.720Z,100.00
2023-05-19T07:25:08.507Z,100.00
2023-05-19T07:27:36.994Z,100.00
2023-05-19T07:30:05.465Z,100.00
2023-05-19T07:32:34.909Z,100.00
2023-05-19T07:35:03.035Z,100.00
2023-05-19T07:37:31.139Z,100.00
2023-05-19T07:39:59.186Z,100.00
2023-05-19T07:42:27.222Z,100.00
2023-05-19T07:44:55.287Z,100.00
2023-05-19T07:47:23.302Z,100.00
2023-05-19T07:49:52.637Z,100.00
2023-05-19T07:52:20.705Z,100.00
2023-05-19T07:54:48.745Z,100.00
2023-05-19T07:57:16.757Z,100.00
2023-05-19T07:59:44.787Z,100.00
2023-05-19T08:02:12.830Z,100.00
2023-05-19T08:04:41.160Z,100.00
2023-05-19T08:07:10.822Z,100.00
2023-05-19T08:09:38.838Z,100.00
2023-05-19T08:12:07.312Z,100.00
2023-05-19T08:14:35.309Z,100.00
2023-05-19T08:17:03.683Z,100.00
2023-05-19T08:19:31.939Z,100.00
2023-05-19T08:22:01.198Z,100.00
2023-05-19T08:24:32.770Z,100.00
2023-05-19T08:27:01.137Z,100.00
2023-05-19T08:29:29.180Z,100.00
2023-05-19T08:31:58.427Z,100.00
2023-05-19T08:34:26.471Z,100.00
2023-05-19T08:36:57.793Z,100.00
2023-05-19T08:39:27.060Z,100.00
2023-05-19T08:41:56.856Z,100.00
2023-05-19T08:44:24.957Z,100.00
2023-05-19T08:46:56.043Z,100.00
2023-05-19T08:49:28.332Z,100.00
2023-05-19T08:52:03.499Z,100.00
2023-05-19T08:54:38.458Z,100.00
2023-05-19T08:57:09.977Z,100.00
2023-05-19T08:59:38.723Z,100.00
2023-05-19T09:02:07.638Z,100.00
2023-05-19T09:04:37.021Z,100.00
2023-05-19T09:07:05.386Z,100.00
2023-05-19T09:09:33.686Z,100.00
2023-05-19T09:12:01.759Z,100.00
2023-05-19T09:14:31.411Z,100.00
2023-05-19T09:16:59.556Z,100.00
2023-05-19T09:19:30.268Z,100.00
2023-05-19T09:22:03.216Z,100.00
2023-05-19T09:24:31.592Z,100.00
2023-05-19T09:27:00.481Z,100.00
2023-05-19T09:29:28.702Z,100.00
2023-05-19T09:32:01.022Z,100.00
2023-05-19T09:34:29.241Z,100.00
2023-05-19T09:36:58.046Z,100.00
2023-05-19T09:39:26.590Z,100.00
2023-05-19T09:41:55.461Z,100.00
2023-05-19T09:44:24.292Z,100.00
2023-05-19T09:46:53.952Z,100.00
2023-05-19T09:49:25.296Z,100.00
2023-05-19T09:51:55.432Z,100.00
2023-05-19T09:54:24.780Z,100.00
2023-05-19T09:56:57.643Z,100.00
2023-05-19T09:59:27.267Z,100.00
2023-05-19T10:01:57.376Z,100.00
2023-05-19T10:04:28.374Z,100.00
2023-05-19T10:07:00.020Z,100.00
2023-05-19T10:09:29.733Z,100.00
2023-05-19T10:11:59.208Z,100.00
2023-05-19T10:14:29.210Z,100.00
2023-05-19T10:16:59.375Z,100.00
2023-05-19T10:19:29.891Z,100.00
2023-05-19T10:21:58.231Z,100.00
2023-05-19T10:24:26.497Z,100.00
2023-05-19T10:26:58.955Z,100.00
2023-05-19T10:29:31.648Z,100.00
2023-05-19T10:32:05.297Z,100.00
2023-05-19T10:35:11.387Z,100.00
2023-05-19T10:37:46.665Z,100.00
2023-05-19T10:40:23.133Z,100.00
2023-05-19T10:43:04.098Z,100.00
2023-05-19T10:45:37.853Z,100.00
2023-05-19T10:48:06.096Z,100.00
2023-05-19T10:50:38.700Z,100.00
2023-05-19T10:53:15.677Z,100.00
2023-05-19T10:55:46.907Z,100.00
2023-05-19T10:58:15.104Z,100.00
2023-05-19T11:00:43.178Z,100.00
2023-05-19T11:03:15.572Z,100.00
2023-05-19T11:05:45.725Z,100.00
2023-05-19T11:08:14.352Z,100.00
2023-05-19T11:10:46.170Z,100.00
2023-05-19T11:13:22.635Z,100.00
2023-05-19T11:15:51.046Z,100.00
2023-05-19T11:18:20.707Z,97.65
2023-05-19T11:20:58.007Z,93.87
2023-05-19T11:23:27.000Z,97.09
2023-05-19T11:25:55.017Z,96.06
2023-05-19T11:28:26.186Z,97.07
2023-05-19T11:30:57.740Z,96.35
2023-05-19T11:33:27.769Z,99.38
2023-05-19T11:35:59.058Z,99.89
2023-05-19T11:38:28.109Z,97.47
2023-05-19T11:40:57.365Z,89.64
2023-05-19T11:43:25.881Z,89.98
2023-05-19T11:45:55.917Z,90.47
2023-05-19T11:48:25.626Z,89.73
2023-05-19T11:50:53.971Z,89.16
2023-05-19T11:53:24.363Z,88.42
2023-05-19T11:55:52.743Z,94.51
2023-05-19T11:58:27.069Z,85.35
2023-05-19T12:00:55.283Z,88.49
2023-05-19T12:03:28.802Z,87.44
2023-05-19T12:05:57.895Z,81.74
2023-05-19T12:08:28.252Z,82.53
2023-05-19T12:10:56.863Z,85.63
2023-05-19T12:13:24.979Z,83.71
2023-05-19T12:15:53.537Z,81.62
2023-05-19T12:18:21.794Z,81.06
2023-05-19T12:20:50.104Z,80.61
2023-05-19T12:23:18.170Z,74.86
2023-05-19T12:25:47.762Z,80.46
2023-05-19T12:28:17.516Z,72.96
2023-05-19T12:30:49.000Z,69.43
2023-05-19T12:33:17.087Z,61.06
2023-05-19T12:35:46.183Z,53.18
2023-05-19T12:38:15.998Z,48.82
2023-05-19T12:40:47.313Z,50.63
2023-05-19T12:43:22.220Z,50.90
2023-05-19T12:45:50.414Z,52.31
2023-05-19T12:48:22.479Z,54.96
2023-05-19T12:50:52.860Z,54.58
2023-05-19T12:53:21.056Z,51.77
2023-05-19T12:55:53.979Z,46.07
2023-05-19T12:58:23.165Z,51.62
2023-05-19T13:00:51.976Z,48.98
2023-05-19T13:03:21.980Z,46.35
2023-05-19T13:05:51.914Z,45.88
2023-05-19T13:08:21.598Z,42.60
2023-05-19T13:10:51.030Z,47.12
2023-05-19T13:13:19.353Z,43.30
2023-05-19T13:15:49.413Z,40.35
2023-05-19T13:18:18.308Z,37.09
2023-05-19T13:20:50.109Z,37.86
2023-05-19T13:23:18.735Z,36.47
2023-05-19T13:25:47.070Z,39.32
2023-05-19T13:28:16.488Z,38.63
2023-05-19T13:30:45.622Z,38.62
2023-05-19T13:33:13.861Z,40.47
2023-05-19T13:35:42.176Z,37.88
2023-05-19T13:38:11.271Z,38.71
2023-05-19T13:40:39.990Z,38.96
2023-05-19T13:43:09.068Z,34.80
2023-05-19T13:45:38.772Z,40.15
2023-05-19T13:48:08.311Z,40.28
2023-05-19T13:50:36.568Z,39.97
2023-05-19T13:53:04.753Z,37.27
2023-05-19T13:55:33.096Z,35.03
2023-05-19T13:58:01.214Z,34.21
2023-05-19T14:00:29.519Z,36.20
2023-05-19T14:03:00.353Z,38.60
2023-05-19T14:05:29.080Z,39.71
2023-05-19T14:07:57.965Z,37.98
2023-05-19T14:10:26.262Z,34.71
2023-05-19T14:13:25.289Z,37.82
2023-05-19T14:15:42.497Z,38.61
2023-05-19T14:18:12.207Z,41.63
2023-05-19T14:20:40.436Z,40.74
2023-05-19T14:23:08.519Z,39.14
2023-05-19T14:25:36.575Z,41.14
2023-05-19T14:28:04.766Z,39.00
2023-05-19T14:30:33.021Z,36.95
2023-05-19T14:33:01.248Z,38.40
2023-05-19T14:35:30.668Z,37.24
2023-05-19T14:37:58.697Z,37.25
2023-05-19T14:40:26.782Z,35.94
2023-05-19T14:42:54.891Z,36.34
2023-05-19T14:45:22.991Z,34.22
2023-05-19T14:47:51.103Z,34.10
2023-05-19T14:50:19.288Z,34.65
2023-05-19T14:52:48.668Z,33.98
2023-05-19T14:55:16.696Z,32.65
2023-05-19T14:57:44.702Z,32.69
2023-05-19T15:00:13.795Z,31.89
2023-05-19T15:02:42.011Z,34.14
2023-05-19T15:05:10.209Z,36.77
2023-05-19T15:07:38.749Z,38.51
2023-05-19T15:10:09.451Z,39.41
2023-05-19T15:12:37.525Z,39.24
2023-05-19T15:15:06.496Z,37.67
2023-05-19T15:17:34.597Z,37.83
2023-05-19T15:20:02.703Z,36.97
2023-05-19T15:22:30.811Z,34.05
2023-05-19T15:24:59.376Z,34.33
2023-05-19T15:27:28.902Z,37.06
2023-05-19T15:29:56.904Z,38.05
2023-05-19T15:32:25.024Z,38.07
2023-05-19T15:34:53.067Z,38.31
2023-05-19T15:37:21.100Z,38.24
2023-05-19T15:39:49.541Z,39.05
2023-05-19T15:42:17.572Z,37.71
2023-05-19T15:44:47.064Z,38.95
2023-05-19T15:47:15.116Z,40.45
2023-05-19T15:49:43.194Z,42.85
2023-05-19T15:52:11.167Z,45.51
2023-05-19T15:54:39.207Z,45.69
2023-05-19T15:57:07.325Z,48.94
2023-05-19T15:59:35.370Z,51.17
2023-05-19T16:02:04.911Z,53.67
2023-05-19T16:04:33.407Z,58.98
2023-05-19T16:07:01.444Z,59.05
2023-05-19T16:09:29.502Z,56.17
2023-05-19T16:11:57.592Z,50.71
2023-05-19T16:14:29.404Z,49.63
2023-05-19T16:16:58.050Z,49.77
2023-05-19T16:19:30.530Z,48.28
2023-05-19T16:21:58.642Z,47.40
2023-05-19T16:24:26.688Z,47.93
2023-05-19T16:26:54.936Z,47.04
2023-05-19T16:29:23.027Z,45.92
2023-05-19T16:31:51.196Z,49.02
2023-05-19T16:34:19.295Z,47.75
2023-05-19T16:36:48.862Z,50.52
2023-05-19T16:39:16.916Z,52.31
2023-05-19T16:41:44.949Z,52.02
2023-05-19T16:44:14.529Z,55.96
2023-05-19T16:46:42.643Z,55.06
2023-05-19T16:49:11.074Z,58.83
2023-05-19T16:51:39.153Z,60.93
2023-05-19T16:54:08.832Z,66.65
2023-05-19T16:56:36.960Z,72.96
2023-05-19T16:59:34.004Z,67.28
2023-05-19T17:02:02.062Z,67.92
2023-05-19T17:04:31.001Z,64.06
2023-05-19T17:06:59.333Z,64.43
2023-05-19T17:09:28.733Z,65.93
2023-05-19T17:11:57.124Z,69.27
2023-05-19T17:14:25.234Z,75.42
2023-05-19T17:16:53.445Z,79.99
2023-05-19T17:19:21.554Z,85.39
2023-05-19T17:21:49.696Z,83.44
2023-05-19T17:24:17.849Z,83.70
2023-05-19T17:26:48.088Z,84.63
2023-05-19T17:29:16.113Z,88.64
2023-05-19T17:31:44.365Z,85.62
2023-05-19T17:34:12.407Z,86.91
2023-05-19T17:36:40.632Z,85.92
2023-05-19T17:39:08.785Z,84.13
2023-05-19T17:41:36.855Z,87.67
2023-05-19T17:44:06.888Z,87.87
2023-05-19T17:46:36.106Z,93.05
2023-05-19T17:49:04.240Z,90.26
2023-05-19T17:51:33.207Z,91.25
2023-05-19T17:54:01.868Z,91.00
2023-05-19T17:56:34.687Z,91.93
2023-05-19T17:59:03.236Z,92.90
2023-05-19T18:01:33.531Z,93.83
2023-05-19T18:04:02.417Z,94.90
2023-05-19T18:06:31.969Z,94.43
2023-05-19T18:09:01.753Z,94.76
2023-05-19T18:11:30.211Z,94.66
2023-05-19T18:13:58.742Z,95.33
2023-05-19T18:16:27.425Z,98.49
2023-05-19T18:18:56.903Z,99.39
2023-05-19T18:21:25.289Z,100.00
2023-05-19T18:23:53.436Z,100.00
2023-05-19T18:26:22.479Z,100.00
2023-05-19T18:28:50.532Z,100.00
2023-05-19T18:31:19.833Z,100.00
2023-05-19T18:33:48.327Z,100.00
2023-05-19T18:36:17.775Z,100.00
2023-05-19T18:38:47.321Z,100.00
2023-05-19T18:41:15.612Z,100.00
2023-05-19T18:43:43.661Z,100.00
2023-05-19T18:46:13.354Z,100.00
2023-05-19T18:48:41.799Z,100.00
2023-05-19T18:51:10.134Z,100.00
2023-05-19T18:53:39.530Z,100.00
2023-05-19T18:56:08.507Z,100.00
2023-05-19T18:58:36.616Z,100.00
2023-05-19T19:01:05.030Z,100.00
2023-05-19T19:03:33.254Z,100.00
2023-05-19T19:06:01.686Z,100.00
2023-05-19T19:08:29.714Z,100.00
2023-05-19T19:11:01.164Z,100.00
2023-05-19T19:13:29.463Z,100.00
2023-05-19T19:15:57.520Z,100.00
2023-05-19T19:18:26.572Z,100.00
2023-05-19T19:20:54.891Z,100.00
2023-05-19T19:23:22.924Z,100.00
2023-05-19T19:25:51.095Z,100.00
2023-05-19T19:28:20.756Z,100.00
2023-05-19T19:30:48.858Z,100.00
2023-05-19T19:33:16.981Z,100.00
2023-05-19T19:35:46.888Z,100.00
2023-05-19T19:38:15.088Z,100.00
2023-05-19T19:40:43.204Z,100.00
2023-05-19T19:43:11.264Z,100.00
2023-05-19T19:45:41.607Z,100.00
2023-05-19T19:48:09.794Z,100.00
2023-05-19T19:50:37.875Z,100.00
2023-05-19T19:53:05.869Z,100.00
2023-05-19T19:55:34.052Z,100.00
2023-05-19T19:58:02.209Z,100.00
2023-05-19T20:00:30.255Z,100.00
2023-05-19T20:03:04.429Z,100.00
2023-05-19T20:05:33.594Z,100.00
2023-05-19T20:08:01.752Z,100.00
2023-05-19T20:10:29.907Z,100.00
2023-05-19T20:12:58.903Z,100.00
2023-05-19T20:15:27.148Z,100.00
2023-05-19T20:17:55.216Z,100.00
2023-05-19T20:20:24.901Z,100.00
2023-05-19T20:22:53.064Z,100.00
2023-05-19T20:25:21.254Z,100.00
2023-05-19T20:27:49.317Z,100.00
2023-05-19T20:30:17.561Z,100.00
2023-05-19T20:32:46.620Z,100.00
2023-05-19T20:35:14.866Z,100.00
2023-05-19T20:37:44.325Z,100.00
2023-05-19T20:40:12.791Z,100.00
2023-05-19T20:42:40.921Z,100.00
2023-05-19T20:45:09.775Z,100.00
2023-05-19T20:47:37.948Z,100.00
2023-05-19T20:50:07.038Z,100.00
2023-05-19T20:52:35.054Z,100.00
2023-05-19T20:55:04.777Z,100.00
2023-05-19T20:57:32.881Z,100.00
2023-05-19T21:00:01.061Z,100.00
2023-05-19T21:02:29.197Z,100.00
2023-05-19T21:04:57.314Z,100.00
2023-05-19T21:07:26.037Z,100.00
2023-05-19T21:09:54.374Z,100.00
2023-05-19T21:12:25.224Z,100.00
2023-05-19T21:14:53.336Z,100.00
2023-05-19T21:17:21.405Z,100.00
2023-05-19T21:19:50.728Z,100.00
2023-05-19T21:22:19.036Z,100.00
2023-05-19T21:24:47.074Z,100.00
2023-05-19T21:27:15.106Z,100.00
2023-05-19T21:29:44.535Z,100.00
2023-05-19T21:32:12.608Z,100.00
2023-05-19T21:34:40.653Z,100.00
2023-05-19T21:37:08.719Z,100.00
2023-05-19T21:39:36.736Z,100.00
2023-05-19T21:42:05.223Z,100.00
2023-05-19T21:44:33.220Z,100.00
2023-05-19T21:47:02.613Z,100.00
2023-05-19T21:49:31.228Z,100.00
2023-05-19T21:51:59.452Z,100.00
2023-05-19T21:54:27.530Z,100.00
2023-05-19T21:56:55.603Z,100.00
2023-05-19T21:59:24.678Z,100.00
2023-05-19T22:01:52.926Z,100.00
2023-05-19T22:04:23.650Z,100.00
2023-05-19T22:06:51.652Z,100.00
2023-05-19T22:09:19.673Z,100.00
2023-05-19T22:11:47.721Z,100.00
2023-05-19T22:14:15.842Z,100.00
2023-05-19T22:16:44.093Z,100.00
2023-05-19T22:19:12.763Z,100.00
2023-05-19T22:21:42.351Z,100.00
2023-05-19T22:24:10.418Z,100.00
2023-05-19T22:26:42.552Z,100.00
2023-05-19T22:29:15.006Z,100.00
2023-05-19T22:31:43.094Z,100.00
2023-05-19T22:34:12.671Z,100.00
2023-05-19T22:36:44.120Z,100.00
2023-05-19T22:39:12.656Z,100.00
2023-05-19T22:41:41.120Z,100.00
2023-05-19T22:44:10.422Z,100.00
2023-05-19T22:46:38.527Z,100.00
2023-05-19T22:49:06.598Z,100.00
2023-05-19T22:51:34.764Z,100.00
2023-05-19T22:54:04.210Z,100.00
2023-05-19T22:56:32.300Z,100.00
2023-05-19T22:59:00.613Z,100.00
2023-05-19T23:01:28.716Z,100.00
2023-05-19T23:03:56.773Z,100.00
2023-05-19T23:06:25.005Z,100.00
2023-05-19T23:09:00.442Z,100.00
2023-05-19T23:11:29.868Z,100.00
2023-05-19T23:13:57.905Z,100.00
2023-05-19T23:16:26.106Z,100.00
2023-05-19T23:18:54.252Z,100.00
2023-05-19T23:21:22.343Z,100.00
2023-05-19T23:23:50.888Z,100.00
2023-05-19T23:26:18.924Z,100.00
2023-05-19T23:28:48.296Z,100.00
2023-05-19T23:31:16.387Z,100.00
2023-05-19T23:33:44.551Z,100.00
2023-05-19T23:36:12.621Z,100.00
2023-05-19T23:38:40.692Z,100.00
2023-05-19T23:41:08.710Z,100.00
2023-05-19T23:43:37.722Z,100.00
2023-05-19T23:46:07.266Z,100.00
2023-05-19T23:48:36.625Z,100.00
2023-05-19T23:51:04.789Z,100.00
2023-05-19T23:53:32.856Z,100.00
2023-05-19T23:56:01.158Z,100.00
2023-05-19T23:58:29.192Z,100.00
